sensor_id;sensor_type;location;lat;lon;timestamp;P1;durP1;ratioP1;P2;durP2;ratioP2
7359;SDS011;3720;48.274;7.796;2023-02-05T00:01:57;28.90;;;15.18;;
7359;SDS011;3720;48.274;7.796;2023-02-05T00:04:29;30.65;;;15.32;;
7359;SDS011;3720;48.274;7.796;2023-02-05T00:07:01;25.38;;;15.15;;
7359;SDS011;3720;48.274;7.796;2023-02-05T00:09:34;26.85;;;13.60;;
7359;SDS011;3720;48.274;7.796;2023-02-05T00:12:09;26.77;;;14.50;;
7359;SDS011;3720;48.274;7.796;2023-02-05T00:14:43;26.17;;;13.93;;
7359;SDS011;3720;48.274;7.796;2023-02-05T00:17:15;27.67;;;15.10;;
7359;SDS011;3720;48.274;7.796;2023-02-05T00:19:47;27.95;;;14.65;;
7359;SDS011;3720;48.274;7.796;2023-02-05T00:22:20;24.67;;;13.70;;
7359;SDS011;3720;48.274;7.796;2023-02-05T00:24:51;27.00;;;13.20;;
7359;SDS011;3720;48.274;7.796;2023-02-05T00:27:23;26.33;;;12.98;;
7359;SDS011;3720;48.274;7.796;2023-02-05T00:29:57;24.98;;;13.95;;
7359;SDS011;3720;48.274;7.796;2023-02-05T00:32:28;27.05;;;14.20;;
7359;SDS011;3720;48.274;7.796;2023-02-05T00:35:01;26.70;;;13.70;;
7359;SDS011;3720;48.274;7.796;2023-02-05T00:37:33;23.45;;;12.65;;
7359;SDS011;3720;48.274;7.796;2023-02-05T00:40:05;24.48;;;12.95;;
7359;SDS011;3720;48.274;7.796;2023-02-05T00:42:37;23.67;;;12.10;;
7359;SDS011;3720;48.274;7.796;2023-02-05T00:45:11;26.38;;;12.60;;
7359;SDS011;3720;48.274;7.796;2023-02-05T00:47:43;24.58;;;12.25;;
7359;SDS011;3720;48.274;7.796;2023-02-05T00:50:15;21.27;;;10.95;;
7359;SDS011;3720;48.274;7.796;2023-02-05T00:52:47;18.67;;;10.63;;
7359;SDS011;3720;48.274;7.796;2023-02-05T00:55:19;22.23;;;11.02;;
7359;SDS011;3720;48.274;7.796;2023-02-05T00:57:51;20.45;;;10.68;;
7359;SDS011;3720;48.274;7.796;2023-02-05T01:00:25;19.33;;;10.80;;
7359;SDS011;3720;48.274;7.796;2023-02-05T01:02:58;22.58;;;12.00;;
7359;SDS011;3720;48.274;7.796;2023-02-05T01:05:30;24.88;;;12.43;;
7359;SDS011;3720;48.274;7.796;2023-02-05T01:08:04;26.08;;;14.07;;
7359;SDS011;3720;48.274;7.796;2023-02-05T01:10:37;25.65;;;12.32;;
7359;SDS011;3720;48.274;7.796;2023-02-05T01:13:13;26.52;;;12.95;;
7359;SDS011;3720;48.274;7.796;2023-02-05T01:15:47;26.05;;;13.95;;
7359;SDS011;3720;48.274;7.796;2023-02-05T01:18:19;26.52;;;14.48;;
7359;SDS011;3720;48.274;7.796;2023-02-05T01:20:51;25.30;;;14.18;;
7359;SDS011;3720;48.274;7.796;2023-02-05T01:23:24;29.13;;;13.57;;
7359;SDS011;3720;48.274;7.796;2023-02-05T01:25:56;34.55;;;15.57;;
7359;SDS011;3720;48.274;7.796;2023-02-05T01:28:28;28.65;;;13.40;;
7359;SDS011;3720;48.274;7.796;2023-02-05T01:31:01;21.35;;;11.45;;
7359;SDS011;3720;48.274;7.796;2023-02-05T01:33:33;20.45;;;10.95;;
7359;SDS011;3720;48.274;7.796;2023-02-05T01:36:05;24.55;;;12.27;;
7359;SDS011;3720;48.274;7.796;2023-02-05T01:38:37;28.67;;;13.63;;
7359;SDS011;3720;48.274;7.796;2023-02-05T01:41:09;29.17;;;13.10;;
7359;SDS011;3720;48.274;7.796;2023-02-05T01:43:42;27.92;;;11.55;;
7359;SDS011;3720;48.274;7.796;2023-02-05T01:46:31;27.98;;;11.43;;
7359;SDS011;3720;48.274;7.796;2023-02-05T01:49:05;28.17;;;12.00;;
7359;SDS011;3720;48.274;7.796;2023-02-05T01:51:41;22.30;;;10.68;;
7359;SDS011;3720;48.274;7.796;2023-02-05T01:54:15;22.55;;;9.80;;
7359;SDS011;3720;48.274;7.796;2023-02-05T01:56:50;19.30;;;9.10;;
7359;SDS011;3720;48.274;7.796;2023-02-05T01:59:25;16.90;;;8.85;;
7359;SDS011;3720;48.274;7.796;2023-02-05T02:02:00;19.20;;;8.55;;
7359;SDS011;3720;48.274;7.796;2023-02-05T02:04:36;17.00;;;8.82;;
7359;SDS011;3720;48.274;7.796;2023-02-05T02:07:11;18.77;;;8.48;;
7359;SDS011;3720;48.274;7.796;2023-02-05T02:09:45;18.23;;;9.15;;
7359;SDS011;3720;48.274;7.796;2023-02-05T02:12:20;20.38;;;8.90;;
7359;SDS011;3720;48.274;7.796;2023-02-05T02:14:55;18.63;;;9.02;;
7359;SDS011;3720;48.274;7.796;2023-02-05T02:17:32;18.63;;;8.45;;
7359;SDS011;3720;48.274;7.796;2023-02-05T02:20:09;15.95;;;8.77;;
7359;SDS011;3720;48.274;7.796;2023-02-05T02:22:47;16.42;;;8.27;;
7359;SDS011;3720;48.274;7.796;2023-02-05T02:25:45;20.38;;;8.82;;
7359;SDS011;3720;48.274;7.796;2023-02-05T02:28:26;16.13;;;5.63;;
7359;SDS011;3720;48.274;7.796;2023-02-05T02:31:03;17.10;;;6.03;;
7359;SDS011;3720;48.274;7.796;2023-02-05T02:33:40;14.02;;;4.88;;
7359;SDS011;3720;48.274;7.796;2023-02-05T02:36:17;12.20;;;5.40;;
7359;SDS011;3720;48.274;7.796;2023-02-05T02:38:53;12.68;;;4.72;;
7359;SDS011;3720;48.274;7.796;2023-02-05T02:41:29;14.63;;;5.40;;
7359;SDS011;3720;48.274;7.796;2023-02-05T02:44:08;13.70;;;6.03;;
7359;SDS011;3720;48.274;7.796;2023-02-05T02:46:45;16.30;;;6.05;;
7359;SDS011;3720;48.274;7.796;2023-02-05T02:49:21;17.52;;;6.45;;
7359;SDS011;3720;48.274;7.796;2023-02-05T02:51:58;14.90;;;6.40;;
7359;SDS011;3720;48.274;7.796;2023-02-05T02:54:34;18.00;;;7.32;;
7359;SDS011;3720;48.274;7.796;2023-02-05T02:57:09;21.38;;;7.43;;
7359;SDS011;3720;48.274;7.796;2023-02-05T02:59:46;15.25;;;6.90;;
7359;SDS011;3720;48.274;7.796;2023-02-05T03:02:21;10.95;;;6.45;;
7359;SDS011;3720;48.274;7.796;2023-02-05T03:04:54;16.58;;;7.45;;
7359;SDS011;3720;48.274;7.796;2023-02-05T03:07:32;18.52;;;8.90;;
7359;SDS011;3720;48.274;7.796;2023-02-05T03:10:10;18.38;;;9.10;;
7359;SDS011;3720;48.274;7.796;2023-02-05T03:12:46;19.08;;;8.82;;
7359;SDS011;3720;48.274;7.796;2023-02-05T03:15:20;16.55;;;8.18;;
7359;SDS011;3720;48.274;7.796;2023-02-05T03:17:52;19.73;;;9.43;;
7359;SDS011;3720;48.274;7.796;2023-02-05T03:20:27;20.35;;;9.88;;
7359;SDS011;3720;48.274;7.796;2023-02-05T03:23:01;22.13;;;9.80;;
7359;SDS011;3720;48.274;7.796;2023-02-05T03:25:33;23.80;;;12.18;;
7359;SDS011;3720;48.274;7.796;2023-02-05T03:28:05;26.83;;;11.88;;
7359;SDS011;3720;48.274;7.796;2023-02-05T03:30:40;20.42;;;10.95;;
7359;SDS011;3720;48.274;7.796;2023-02-05T03:36:16;25.17;;;12.20;;
7359;SDS011;3720;48.274;7.796;2023-02-05T03:38:59;20.95;;;11.18;;
7359;SDS011;3720;48.274;7.796;2023-02-05T03:41:43;20.15;;;10.98;;
7359;SDS011;3720;48.274;7.796;2023-02-05T03:44:28;26.80;;;11.02;;
7359;SDS011;3720;48.274;7.796;2023-02-05T03:47:19;22.20;;;9.90;;
7359;SDS011;3720;48.274;7.796;2023-02-05T03:49:59;21.70;;;10.73;;
7359;SDS011;3720;48.274;7.796;2023-02-05T03:52:42;19.63;;;10.30;;
7359;SDS011;3720;48.274;7.796;2023-02-05T03:57:54;22.02;;;10.02;;
7359;SDS011;3720;48.274;7.796;2023-02-05T04:00:28;20.92;;;9.98;;
7359;SDS011;3720;48.274;7.796;2023-02-05T04:03:02;16.08;;;9.52;;
7359;SDS011;3720;48.274;7.796;2023-02-05T04:05:34;19.20;;;10.15;;
7359;SDS011;3720;48.274;7.796;2023-02-05T04:08:07;17.67;;;9.75;;
7359;SDS011;3720;48.274;7.796;2023-02-05T04:10:40;19.00;;;9.95;;
7359;SDS011;3720;48.274;7.796;2023-02-05T04:13:11;17.15;;;9.73;;
7359;SDS011;3720;48.274;7.796;2023-02-05T04:15:43;22.45;;;10.50;;
7359;SDS011;3720;48.274;7.796;2023-02-05T04:18:17;19.65;;;9.90;;
7359;SDS011;3720;48.274;7.796;2023-02-05T04:20:49;18.48;;;9.70;;
7359;SDS011;3720;48.274;7.796;2023-02-05T04:23:21;18.85;;;9.13;;
7359;SDS011;3720;48.274;7.796;2023-02-05T04:25:53;16.80;;;9.57;;
7359;SDS011;3720;48.274;7.796;2023-02-05T04:28:26;17.63;;;9.23;;
7359;SDS011;3720;48.274;7.796;2023-02-05T04:30:57;18.00;;;9.52;;
7359;SDS011;3720;48.274;7.796;2023-02-05T04:33:31;22.02;;;10.23;;
7359;SDS011;3720;48.274;7.796;2023-02-05T04:36:03;18.50;;;9.60;;
7359;SDS011;3720;48.274;7.796;2023-02-05T04:38:36;16.30;;;9.00;;
7359;SDS011;3720;48.274;7.796;2023-02-05T04:41:08;19.50;;;9.77;;
7359;SDS011;3720;48.274;7.796;2023-02-05T04:43:40;16.55;;;9.18;;
7359;SDS011;3720;48.274;7.796;2023-02-05T04:46:12;15.18;;;8.75;;
7359;SDS011;3720;48.274;7.796;2023-02-05T04:48:45;19.35;;;9.15;;
7359;SDS011;3720;48.274;7.796;2023-02-05T04:51:17;16.23;;;8.35;;
7359;SDS011;3720;48.274;7.796;2023-02-05T04:53:49;18.95;;;7.93;;
7359;SDS011;3720;48.274;7.796;2023-02-05T04:56:21;17.17;;;7.88;;
7359;SDS011;3720;48.274;7.796;2023-02-05T04:58:53;14.43;;;7.30;;
7359;SDS011;3720;48.274;7.796;2023-02-05T05:01:25;14.05;;;7.53;;
7359;SDS011;3720;48.274;7.796;2023-02-05T05:03:58;12.98;;;7.65;;
7359;SDS011;3720;48.274;7.796;2023-02-05T05:06:30;16.00;;;7.53;;
7359;SDS011;3720;48.274;7.796;2023-02-05T05:09:02;17.35;;;7.53;;
7359;SDS011;3720;48.274;7.796;2023-02-05T05:11:34;13.50;;;7.43;;
7359;SDS011;3720;48.274;7.796;2023-02-05T05:14:06;14.13;;;7.75;;
7359;SDS011;3720;48.274;7.796;2023-02-05T05:16:38;15.27;;;7.55;;
7359;SDS011;3720;48.274;7.796;2023-02-05T05:19:11;14.88;;;7.50;;
7359;SDS011;3720;48.274;7.796;2023-02-05T05:21:43;18.05;;;8.68;;
7359;SDS011;3720;48.274;7.796;2023-02-05T05:24:15;15.80;;;8.88;;
7359;SDS011;3720;48.274;7.796;2023-02-05T05:26:46;19.00;;;8.40;;
7359;SDS011;3720;48.274;7.796;2023-02-05T05:29:19;15.07;;;8.60;;
7359;SDS011;3720;48.274;7.796;2023-02-05T05:31:50;15.93;;;8.68;;
7359;SDS011;3720;48.274;7.796;2023-02-05T05:34:24;18.48;;;9.15;;
7359;SDS011;3720;48.274;7.796;2023-02-05T05:36:56;18.50;;;8.52;;
7359;SDS011;3720;48.274;7.796;2023-02-05T05:39:28;15.93;;;7.97;;
7359;SDS011;3720;48.274;7.796;2023-02-05T05:42:18;15.73;;;6.97;;
7359;SDS011;3720;48.274;7.796;2023-02-05T05:45:07;13.93;;;5.90;;
7359;SDS011;3720;48.274;7.796;2023-02-05T05:47:39;12.38;;;5.53;;
7359;SDS011;3720;48.274;7.796;2023-02-05T05:50:13;13.75;;;5.50;;
7359;SDS011;3720;48.274;7.796;2023-02-05T05:52:45;13.88;;;5.63;;
7359;SDS011;3720;48.274;7.796;2023-02-05T05:55:17;14.88;;;5.45;;
7359;SDS011;3720;48.274;7.796;2023-02-05T05:57:49;12.98;;;5.90;;
7359;SDS011;3720;48.274;7.796;2023-02-05T06:00:21;11.10;;;5.22;;
7359;SDS011;3720;48.274;7.796;2023-02-05T06:02:53;12.90;;;6.07;;
7359;SDS011;3720;48.274;7.796;2023-02-05T06:05:26;15.77;;;5.95;;
7359;SDS011;3720;48.274;7.796;2023-02-05T06:07:58;12.25;;;5.50;;
7359;SDS011;3720;48.274;7.796;2023-02-05T06:10:30;11.93;;;5.53;;
7359;SDS011;3720;48.274;7.796;2023-02-05T06:13:04;13.00;;;5.95;;
7359;SDS011;3720;48.274;7.796;2023-02-05T06:15:36;13.70;;;5.97;;
7359;SDS011;3720;48.274;7.796;2023-02-05T06:18:08;15.35;;;5.88;;
7359;SDS011;3720;48.274;7.796;2023-02-05T06:20:41;18.88;;;6.35;;
7359;SDS011;3720;48.274;7.796;2023-02-05T06:23:13;14.55;;;5.90;;
7359;SDS011;3720;48.274;7.796;2023-02-05T06:25:45;16.08;;;6.28;;
7359;SDS011;3720;48.274;7.796;2023-02-05T06:28:17;18.45;;;6.47;;
7359;SDS011;3720;48.274;7.796;2023-02-05T06:30:49;14.85;;;6.60;;
7359;SDS011;3720;48.274;7.796;2023-02-05T06:33:21;12.45;;;6.50;;
7359;SDS011;3720;48.274;7.796;2023-02-05T06:35:55;15.52;;;6.47;;
7359;SDS011;3720;48.274;7.796;2023-02-05T06:38:27;10.40;;;5.75;;
7359;SDS011;3720;48.274;7.796;2023-02-05T06:40:59;12.43;;;6.07;;
7359;SDS011;3720;48.274;7.796;2023-02-05T06:43:31;14.48;;;6.60;;
7359;SDS011;3720;48.274;7.796;2023-02-05T06:46:03;11.27;;;5.80;;
7359;SDS011;3720;48.274;7.796;2023-02-05T06:48:35;14.05;;;5.90;;
7359;SDS011;3720;48.274;7.796;2023-02-05T06:51:08;14.52;;;5.95;;
7359;SDS011;3720;48.274;7.796;2023-02-05T06:53:40;10.45;;;5.60;;
7359;SDS011;3720;48.274;7.796;2023-02-05T06:56:12;14.30;;;5.82;;
7359;SDS011;3720;48.274;7.796;2023-02-05T06:58:44;16.27;;;6.32;;
7359;SDS011;3720;48.274;7.796;2023-02-05T07:01:16;12.57;;;5.78;;
7359;SDS011;3720;48.274;7.796;2023-02-05T07:03:48;11.23;;;5.70;;
7359;SDS011;3720;48.274;7.796;2023-02-05T07:06:25;8.63;;;4.50;;
7359;SDS011;3720;48.274;7.796;2023-02-05T07:08:58;10.52;;;5.03;;
7359;SDS011;3720;48.274;7.796;2023-02-05T07:11:29;10.80;;;4.70;;
7359;SDS011;3720;48.274;7.796;2023-02-05T07:14:02;8.25;;;4.63;;
7359;SDS011;3720;48.274;7.796;2023-02-05T07:16:34;13.40;;;4.30;;
7359;SDS011;3720;48.274;7.796;2023-02-05T07:19:05;10.00;;;4.50;;
7359;SDS011;3720;48.274;7.796;2023-02-05T07:21:39;11.10;;;4.53;;
7359;SDS011;3720;48.274;7.796;2023-02-05T07:24:11;10.65;;;4.72;;
7359;SDS011;3720;48.274;7.796;2023-02-05T07:26:43;10.85;;;4.65;;
7359;SDS011;3720;48.274;7.796;2023-02-05T07:29:15;12.50;;;5.00;;
7359;SDS011;3720;48.274;7.796;2023-02-05T07:31:47;9.63;;;4.38;;
7359;SDS011;3720;48.274;7.796;2023-02-05T07:34:20;11.55;;;4.93;;
7359;SDS011;3720;48.274;7.796;2023-02-05T07:36:53;10.82;;;4.75;;
7359;SDS011;3720;48.274;7.796;2023-02-05T07:39:25;10.00;;;4.65;;
7359;SDS011;3720;48.274;7.796;2023-02-05T07:41:58;11.57;;;5.63;;
7359;SDS011;3720;48.274;7.796;2023-02-05T07:44:30;11.63;;;6.10;;
7359;SDS011;3720;48.274;7.796;2023-02-05T07:47:02;14.25;;;7.05;;
7359;SDS011;3720;48.274;7.796;2023-02-05T07:49:34;12.52;;;7.50;;
7359;SDS011;3720;48.274;7.796;2023-02-05T07:52:08;10.30;;;5.40;;
7359;SDS011;3720;48.274;7.796;2023-02-05T07:54:39;10.15;;;4.57;;
7359;SDS011;3720;48.274;7.796;2023-02-05T07:57:11;9.35;;;4.68;;
7359;SDS011;3720;48.274;7.796;2023-02-05T07:59:43;8.65;;;4.75;;
7359;SDS011;3720;48.274;7.796;2023-02-05T08:02:15;11.52;;;5.35;;
7359;SDS011;3720;48.274;7.796;2023-02-05T08:04:47;11.65;;;5.07;;
7359;SDS011;3720;48.274;7.796;2023-02-05T08:07:20;12.25;;;5.40;;
7359;SDS011;3720;48.274;7.796;2023-02-05T08:09:52;8.77;;;5.00;;
7359;SDS011;3720;48.274;7.796;2023-02-05T08:12:24;14.90;;;6.25;;
7359;SDS011;3720;48.274;7.796;2023-02-05T08:14:56;17.42;;;7.28;;
7359;SDS011;3720;48.274;7.796;2023-02-05T08:17:28;15.98;;;7.05;;
7359;SDS011;3720;48.274;7.796;2023-02-05T08:20:00;15.27;;;6.80;;
7359;SDS011;3720;48.274;7.796;2023-02-05T08:22:38;14.65;;;6.40;;
7359;SDS011;3720;48.274;7.796;2023-02-05T08:25:12;17.95;;;8.13;;
7359;SDS011;3720;48.274;7.796;2023-02-05T08:27:45;19.73;;;9.48;;
7359;SDS011;3720;48.274;7.796;2023-02-05T08:30:18;17.75;;;8.40;;
7359;SDS011;3720;48.274;7.796;2023-02-05T08:32:50;19.23;;;8.63;;
7359;SDS011;3720;48.274;7.796;2023-02-05T08:35:22;17.05;;;8.15;;
7359;SDS011;3720;48.274;7.796;2023-02-05T08:37:55;17.00;;;7.85;;
7359;SDS011;3720;48.274;7.796;2023-02-05T08:40:28;17.02;;;8.50;;
7359;SDS011;3720;48.274;7.796;2023-02-05T08:43:00;17.38;;;8.23;;
7359;SDS011;3720;48.274;7.796;2023-02-05T08:45:32;23.83;;;11.15;;
7359;SDS011;3720;48.274;7.796;2023-02-05T08:48:04;29.08;;;13.40;;
7359;SDS011;3720;48.274;7.796;2023-02-05T08:50:36;30.00;;;14.90;;
7359;SDS011;3720;48.274;7.796;2023-02-05T08:53:09;36.97;;;15.55;;
7359;SDS011;3720;48.274;7.796;2023-02-05T08:55:41;30.85;;;15.38;;
7359;SDS011;3720;48.274;7.796;2023-02-05T08:58:15;32.50;;;15.52;;
7359;SDS011;3720;48.274;7.796;2023-02-05T09:00:46;37.05;;;16.42;;
7359;SDS011;3720;48.274;7.796;2023-02-05T09:03:18;35.70;;;15.80;;
7359;SDS011;3720;48.274;7.796;2023-02-05T09:05:50;38.97;;;16.60;;
7359;SDS011;3720;48.274;7.796;2023-02-05T09:08:23;36.33;;;16.70;;
7359;SDS011;3720;48.274;7.796;2023-02-05T09:10:56;39.25;;;17.10;;
7359;SDS011;3720;48.274;7.796;2023-02-05T09:13:28;39.03;;;18.30;;
7359;SDS011;3720;48.274;7.796;2023-02-05T09:15:59;43.38;;;18.50;;
7359;SDS011;3720;48.274;7.796;2023-02-05T09:18:32;43.22;;;18.95;;
7359;SDS011;3720;48.274;7.796;2023-02-05T09:21:05;46.72;;;20.45;;
7359;SDS011;3720;48.274;7.796;2023-02-05T09:23:39;45.03;;;19.10;;
7359;SDS011;3720;48.274;7.796;2023-02-05T09:26:11;41.80;;;18.35;;
7359;SDS011;3720;48.274;7.796;2023-02-05T09:28:43;43.97;;;19.20;;
7359;SDS011;3720;48.274;7.796;2023-02-05T09:31:16;43.42;;;18.88;;
7359;SDS011;3720;48.274;7.796;2023-02-05T09:33:49;38.63;;;17.85;;
7359;SDS011;3720;48.274;7.796;2023-02-05T09:36:22;40.85;;;17.83;;
7359;SDS011;3720;48.274;7.796;2023-02-05T09:38:55;40.92;;;18.23;;
7359;SDS011;3720;48.274;7.796;2023-02-05T09:41:28;42.60;;;18.52;;
7359;SDS011;3720;48.274;7.796;2023-02-05T09:44:08;39.58;;;17.40;;
7359;SDS011;3720;48.274;7.796;2023-02-05T09:46:49;38.22;;;17.27;;
7359;SDS011;3720;48.274;7.796;2023-02-05T09:49:31;35.88;;;16.73;;
7359;SDS011;3720;48.274;7.796;2023-02-05T09:52:11;33.80;;;15.07;;
7359;SDS011;3720;48.274;7.796;2023-02-05T09:54:53;34.28;;;15.27;;
7359;SDS011;3720;48.274;7.796;2023-02-05T09:57:31;32.08;;;15.00;;
7359;SDS011;3720;48.274;7.796;2023-02-05T10:00:06;32.70;;;15.70;;
7359;SDS011;3720;48.274;7.796;2023-02-05T10:02:52;34.33;;;15.10;;
7359;SDS011;3720;48.274;7.796;2023-02-05T10:05:29;33.05;;;15.05;;
7359;SDS011;3720;48.274;7.796;2023-02-05T10:08:10;32.75;;;15.35;;
7359;SDS011;3720;48.274;7.796;2023-02-05T10:10:49;31.77;;;15.52;;
7359;SDS011;3720;48.274;7.796;2023-02-05T10:13:28;38.22;;;16.40;;
7359;SDS011;3720;48.274;7.796;2023-02-05T10:16:10;31.33;;;15.25;;
7359;SDS011;3720;48.274;7.796;2023-02-05T10:19:13;32.90;;;14.60;;
7359;SDS011;3720;48.274;7.796;2023-02-05T10:22:05;31.75;;;15.23;;
7359;SDS011;3720;48.274;7.796;2023-02-05T10:24:46;34.28;;;15.38;;
7359;SDS011;3720;48.274;7.796;2023-02-05T10:27:40;34.63;;;15.60;;
7359;SDS011;3720;48.274;7.796;2023-02-05T10:30:20;35.17;;;16.08;;
7359;SDS011;3720;48.274;7.796;2023-02-05T10:32:59;33.55;;;15.30;;
7359;SDS011;3720;48.274;7.796;2023-02-05T10:35:36;32.10;;;14.77;;
7359;SDS011;3720;48.274;7.796;2023-02-05T10:38:15;32.53;;;15.85;;
7359;SDS011;3720;48.274;7.796;2023-02-05T10:40:55;37.20;;;15.35;;
7359;SDS011;3720;48.274;7.796;2023-02-05T10:43:34;33.78;;;16.55;;
7359;SDS011;3720;48.274;7.796;2023-02-05T10:46:11;36.83;;;17.02;;
7359;SDS011;3720;48.274;7.796;2023-02-05T10:48:44;38.60;;;17.60;;
7359;SDS011;3720;48.274;7.796;2023-02-05T10:51:21;36.28;;;17.15;;
7359;SDS011;3720;48.274;7.796;2023-02-05T10:54:01;32.72;;;16.13;;
7359;SDS011;3720;48.274;7.796;2023-02-05T10:56:33;36.88;;;16.98;;
7359;SDS011;3720;48.274;7.796;2023-02-05T10:59:09;35.65;;;16.77;;
7359;SDS011;3720;48.274;7.796;2023-02-05T11:01:49;32.28;;;15.40;;
7359;SDS011;3720;48.274;7.796;2023-02-05T11:04:24;31.55;;;14.88;;
7359;SDS011;3720;48.274;7.796;2023-02-05T11:07:07;32.28;;;14.80;;
7359;SDS011;3720;48.274;7.796;2023-02-05T11:09:42;31.17;;;15.30;;
7359;SDS011;3720;48.274;7.796;2023-02-05T11:12:16;35.42;;;16.10;;
7359;SDS011;3720;48.274;7.796;2023-02-05T11:14:58;34.10;;;16.05;;
7359;SDS011;3720;48.274;7.796;2023-02-05T11:17:32;35.53;;;15.73;;
7359;SDS011;3720;48.274;7.796;2023-02-05T11:20:23;37.33;;;16.85;;
7359;SDS011;3720;48.274;7.796;2023-02-05T11:23:04;37.40;;;15.95;;
7359;SDS011;3720;48.274;7.796;2023-02-05T11:25:52;39.17;;;15.25;;
7359;SDS011;3720;48.274;7.796;2023-02-05T11:28:26;33.25;;;15.25;;
7359;SDS011;3720;48.274;7.796;2023-02-05T11:31:17;35.70;;;14.73;;
7359;SDS011;3720;48.274;7.796;2023-02-05T11:33:51;34.25;;;15.23;;
7359;SDS011;3720;48.274;7.796;2023-02-05T11:36:46;30.38;;;14.45;;
7359;SDS011;3720;48.274;7.796;2023-02-05T11:39:33;29.77;;;13.63;;
7359;SDS011;3720;48.274;7.796;2023-02-05T11:42:08;34.03;;;14.27;;
7359;SDS011;3720;48.274;7.796;2023-02-05T11:44:46;28.25;;;13.52;;
7359;SDS011;3720;48.274;7.796;2023-02-05T11:47:24;31.15;;;13.70;;
7359;SDS011;3720;48.274;7.796;2023-02-05T11:50:00;31.90;;;14.27;;
7359;SDS011;3720;48.274;7.796;2023-02-05T11:52:34;28.60;;;13.23;;
7359;SDS011;3720;48.274;7.796;2023-02-05T11:55:21;30.40;;;14.07;;
7359;SDS011;3720;48.274;7.796;2023-02-05T11:57:58;33.78;;;15.63;;
7359;SDS011;3720;48.274;7.796;2023-02-05T12:00:31;34.80;;;15.35;;
7359;SDS011;3720;48.274;7.796;2023-02-05T12:03:12;31.98;;;15.05;;
7359;SDS011;3720;48.274;7.796;2023-02-05T12:05:49;33.17;;;15.27;;
7359;SDS011;3720;48.274;7.796;2023-02-05T12:08:29;33.03;;;15.07;;
7359;SDS011;3720;48.274;7.796;2023-02-05T12:17:03;35.35;;;15.40;;
7359;SDS011;3720;48.274;7.796;2023-02-05T12:19:48;32.88;;;15.40;;
7359;SDS011;3720;48.274;7.796;2023-02-05T12:22:31;31.75;;;15.45;;
7359;SDS011;3720;48.274;7.796;2023-02-05T12:25:18;33.88;;;16.08;;
7359;SDS011;3720;48.274;7.796;2023-02-05T12:28:02;33.85;;;16.10;;
7359;SDS011;3720;48.274;7.796;2023-02-05T12:30:57;34.67;;;16.10;;
7359;SDS011;3720;48.274;7.796;2023-02-05T12:33:39;36.13;;;16.20;;
7359;SDS011;3720;48.274;7.796;2023-02-05T12:36:28;32.28;;;16.38;;
7359;SDS011;3720;48.274;7.796;2023-02-05T12:39:18;37.92;;;16.45;;
7359;SDS011;3720;48.274;7.796;2023-02-05T12:44:48;36.03;;;16.15;;
7359;SDS011;3720;48.274;7.796;2023-02-05T12:47:32;34.33;;;16.92;;
7359;SDS011;3720;48.274;7.796;2023-02-05T12:50:24;33.53;;;16.73;;
7359;SDS011;3720;48.274;7.796;2023-02-05T12:53:22;34.83;;;17.05;;
7359;SDS011;3720;48.274;7.796;2023-02-05T12:56:07;34.25;;;16.60;;
7359;SDS011;3720;48.274;7.796;2023-02-05T12:58:53;31.40;;;16.52;;
7359;SDS011;3720;48.274;7.796;2023-02-05T13:01:32;33.67;;;16.52;;
7359;SDS011;3720;48.274;7.796;2023-02-05T13:04:14;31.70;;;16.67;;
7359;SDS011;3720;48.274;7.796;2023-02-05T13:06:53;32.90;;;16.58;;
7359;SDS011;3720;48.274;7.796;2023-02-05T13:09:32;36.75;;;16.90;;
7359;SDS011;3720;48.274;7.796;2023-02-05T13:12:12;35.20;;;16.30;;
7359;SDS011;3720;48.274;7.796;2023-02-05T13:14:52;31.08;;;16.02;;
7359;SDS011;3720;48.274;7.796;2023-02-05T13:17:32;35.33;;;16.80;;
7359;SDS011;3720;48.274;7.796;2023-02-05T13:20:13;35.03;;;16.75;;
7359;SDS011;3720;48.274;7.796;2023-02-05T13:22:53;34.42;;;16.70;;
7359;SDS011;3720;48.274;7.796;2023-02-05T13:25:47;35.63;;;16.20;;
7359;SDS011;3720;48.274;7.796;2023-02-05T13:28:38;33.88;;;16.20;;
7359;SDS011;3720;48.274;7.796;2023-02-05T13:31:14;33.28;;;16.55;;
7359;SDS011;3720;48.274;7.796;2023-02-05T13:33:53;30.00;;;16.05;;
7359;SDS011;3720;48.274;7.796;2023-02-05T13:39:52;35.03;;;16.00;;
7359;SDS011;3720;48.274;7.796;2023-02-05T13:43:06;34.85;;;16.23;;
7359;SDS011;3720;48.274;7.796;2023-02-05T13:46:03;30.60;;;15.35;;
7359;SDS011;3720;48.274;7.796;2023-02-05T13:49:00;29.10;;;15.57;;
7359;SDS011;3720;48.274;7.796;2023-02-05T13:51:55;35.58;;;16.05;;
7359;SDS011;3720;48.274;7.796;2023-02-05T13:58:00;29.92;;;15.40;;
7359;SDS011;3720;48.274;7.796;2023-02-05T14:00:57;32.03;;;16.42;;
7359;SDS011;3720;48.274;7.796;2023-02-05T14:03:32;35.80;;;17.38;;
7359;SDS011;3720;48.274;7.796;2023-02-05T14:06:14;33.88;;;17.27;;
7359;SDS011;3720;48.274;7.796;2023-02-05T14:08:55;30.05;;;15.98;;
7359;SDS011;3720;48.274;7.796;2023-02-05T14:11:41;32.95;;;17.08;;
7359;SDS011;3720;48.274;7.796;2023-02-05T14:14:22;33.30;;;16.80;;
7359;SDS011;3720;48.274;7.796;2023-02-05T14:16:59;36.10;;;17.60;;
7359;SDS011;3720;48.274;7.796;2023-02-05T14:19:51;33.65;;;17.55;;
7359;SDS011;3720;48.274;7.796;2023-02-05T14:22:37;35.05;;;17.58;;
7359;SDS011;3720;48.274;7.796;2023-02-05T14:28:48;33.25;;;15.80;;
7359;SDS011;3720;48.274;7.796;2023-02-05T14:34:27;39.22;;;18.98;;
7359;SDS011;3720;48.274;7.796;2023-02-05T14:37:22;37.95;;;18.80;;
7359;SDS011;3720;48.274;7.796;2023-02-05T14:40:11;41.58;;;20.10;;
7359;SDS011;3720;48.274;7.796;2023-02-05T14:42:57;39.53;;;19.48;;
7359;SDS011;3720;48.274;7.796;2023-02-05T14:45:36;38.00;;;19.13;;
7359;SDS011;3720;48.274;7.796;2023-02-05T14:48:21;38.22;;;18.90;;
7359;SDS011;3720;48.274;7.796;2023-02-05T14:51:02;35.45;;;19.15;;
7359;SDS011;3720;48.274;7.796;2023-02-05T14:53:36;30.98;;;17.75;;
7359;SDS011;3720;48.274;7.796;2023-02-05T14:56:20;29.30;;;16.20;;
7359;SDS011;3720;48.274;7.796;2023-02-05T14:58:55;34.22;;;18.42;;
7359;SDS011;3720;48.274;7.796;2023-02-05T15:01:41;37.35;;;18.67;;
7359;SDS011;3720;48.274;7.796;2023-02-05T15:04:18;32.83;;;17.75;;
7359;SDS011;3720;48.274;7.796;2023-02-05T15:07:00;42.85;;;23.35;;
7359;SDS011;3720;48.274;7.796;2023-02-05T15:09:41;34.05;;;19.02;;
7359;SDS011;3720;48.274;7.796;2023-02-05T15:12:25;37.10;;;18.27;;
7359;SDS011;3720;48.274;7.796;2023-02-05T15:15:21;28.85;;;14.75;;
7359;SDS011;3720;48.274;7.796;2023-02-05T15:18:01;29.27;;;17.60;;
7359;SDS011;3720;48.274;7.796;2023-02-05T15:20:47;37.13;;;19.02;;
7359;SDS011;3720;48.274;7.796;2023-02-05T15:23:31;34.35;;;18.38;;
7359;SDS011;3720;48.274;7.796;2023-02-05T15:26:06;31.80;;;17.95;;
7359;SDS011;3720;48.274;7.796;2023-02-05T15:28:49;28.15;;;17.25;;
7359;SDS011;3720;48.274;7.796;2023-02-05T15:31:37;30.27;;;17.38;;
7359;SDS011;3720;48.274;7.796;2023-02-05T15:37:02;27.52;;;15.77;;
7359;SDS011;3720;48.274;7.796;2023-02-05T15:39:41;35.33;;;18.65;;
7359;SDS011;3720;48.274;7.796;2023-02-05T15:42:19;34.72;;;18.85;;
7359;SDS011;3720;48.274;7.796;2023-02-05T15:44:56;31.77;;;17.55;;
7359;SDS011;3720;48.274;7.796;2023-02-05T15:47:28;32.92;;;17.90;;
7359;SDS011;3720;48.274;7.796;2023-02-05T15:50:00;30.83;;;16.52;;
7359;SDS011;3720;48.274;7.796;2023-02-05T15:52:34;28.98;;;16.13;;
7359;SDS011;3720;48.274;7.796;2023-02-05T15:55:10;29.60;;;16.35;;
7359;SDS011;3720;48.274;7.796;2023-02-05T15:57:46;33.72;;;18.00;;
7359;SDS011;3720;48.274;7.796;2023-02-05T16:00:20;29.55;;;16.30;;
7359;SDS011;3720;48.274;7.796;2023-02-05T16:02:56;31.60;;;16.13;;
7359;SDS011;3720;48.274;7.796;2023-02-05T16:05:29;28.75;;;15.45;;
7359;SDS011;3720;48.274;7.796;2023-02-05T16:08:02;29.95;;;16.02;;
7359;SDS011;3720;48.274;7.796;2023-02-05T16:10:51;28.08;;;15.52;;
7359;SDS011;3720;48.274;7.796;2023-02-05T16:13:27;27.00;;;15.73;;
7359;SDS011;3720;48.274;7.796;2023-02-05T16:16:00;27.67;;;15.70;;
7359;SDS011;3720;48.274;7.796;2023-02-05T16:18:36;29.52;;;16.98;;
7359;SDS011;3720;48.274;7.796;2023-02-05T16:21:14;28.10;;;15.73;;